Time;durP1;ratioP1;P1;durP2;ratioP2;P2;SDS_P1;SDS_P2;PMS_P1;PMS_P2;Temp;Humidity;BMP_temperature;BMP_pressure;BME280_temperature;BME280_humidity;BME280_pressure;Samples;Min_cycle;Max_cycle;Signal;HPM_P1;HPM_P2
2023/01/04 00:01:05;;;;;;;8.35;1.20;;;9.30;99.90;;;;;;5031961;28;20060;-72
2023/01/04 00:03:32;;;;;;;7.18;0.98;;;9.30;99.90;;;;;;5033103;28;20033;-72
2023/01/04 00:05:59;;;;;;;8.30;1.10;;;9.30;99.90;;;;;;5033074;28;20044;-74
2023/01/04 00:08:24;;;;;;;11.18;2.60;;;9.30;99.90;;;;;;5032940;28;20039;-72
2023/01/04 00:10:50;;;;;;;6.30;1.13;;;9.30;99.90;;;;;;5031439;28;20083;-72
2023/01/04 00:13:16;;;;;;;5.47;0.80;;;9.30;99.90;;;;;;5031433;28;20029;-72
2023/01/04 00:15:41;;;;;;;6.93;1.20;;;9.30;99.90;;;;;;5033154;28;20037;-73
2023/01/04 00:18:07;;;;;;;7.97;1.60;;;9.30;99.90;;;;;;5015287;28;20186;-72
2023/01/04 00:20:33;;;;;;;6.82;0.90;;;9.30;99.90;;;;;;5032986;28;20053;-72
2023/01/04 00:22:59;;;;;;;11.88;1.33;;;9.20;99.90;;;;;;5015349;28;20114;-73
2023/01/04 00:25:24;;;;;;;7.18;1.42;;;9.20;99.90;;;;;;5033129;28;20029;-72
2023/01/04 00:27:51;;;;;;;6.30;1.23;;;9.20;99.90;;;;;;5034026;28;20061;-72
2023/01/04 00:30:16;;;;;;;8.23;1.10;;;9.20;99.90;;;;;;5034789;28;20033;-72
2023/01/04 00:32:43;;;;;;;7.10;1.38;;;9.20;99.90;;;;;;5036654;28;20029;-72
2023/01/04 00:35:09;;;;;;;5.63;1.00;;;9.20;99.90;;;;;;5034767;28;20030;-72
2023/01/04 00:37:35;;;;;;;7.78;1.25;;;9.20;99.90;;;;;;5031607;28;20433;-71
2023/01/04 00:40:01;;;;;;;9.07;1.40;;;9.10;99.90;;;;;;5032525;28;20038;-70
2023/01/04 00:42:27;;;;;;;8.23;1.77;;;9.10;99.90;;;;;;5032549;28;20511;-70
2023/01/04 00:44:52;;;;;;;9.13;1.58;;;9.10;99.90;;;;;;5031206;28;20506;-70
2023/01/04 00:47:18;;;;;;;7.50;1.40;;;9.10;99.90;;;;;;5032957;28;20375;-70
2023/01/04 00:49:43;;;;;;;5.50;1.25;;;9.20;99.90;;;;;;5036876;28;20108;-70
2023/01/04 00:52:09;;;;;;;7.80;1.27;;;9.10;99.90;;;;;;5036533;28;20425;-70
2023/01/04 00:54:35;;;;;;;6.88;1.27;;;9.10;99.90;;;;;;5035194;28;20053;-69
2023/01/04 00:57:01;;;;;;;6.50;1.50;;;9.10;99.90;;;;;;5036322;28;20437;-70
2023/01/04 00:59:27;;;;;;;9.40;1.58;;;9.10;99.90;;;;;;5036507;28;20109;-70
2023/01/04 01:01:53;;;;;;;10.88;1.60;;;9.10;99.90;;;;;;5036321;28;20040;-70
2023/01/04 01:04:21;;;;;;;10.27;1.30;;;9.10;99.90;;;;;;5036241;28;20044;-71
2023/01/04 01:06:47;;;;;;;5.43;1.02;;;9.10;99.90;;;;;;5036084;28;20037;-72
2023/01/04 01:09:14;;;;;;;8.20;1.20;;;9.10;99.90;;;;;;5036101;28;20025;-70
2023/01/04 01:11:40;;;;;;;6.05;1.20;;;9.10;99.90;;;;;;5036412;28;20021;-69
2023/01/04 01:14:11;;;;;;;5.53;1.13;;;9.00;99.90;;;;;;5035615;28;20108;-70
2023/01/04 01:16:37;;;;;;;7.88;0.88;;;9.00;99.90;;;;;;5036169;28;20359;-69
2023/01/04 01:19:02;;;;;;;5.82;1.20;;;9.10;99.90;;;;;;5036047;28;20097;-69
2023/01/04 01:21:28;;;;;;;8.15;1.02;;;9.10;99.90;;;;;;5036230;28;20462;-69
2023/01/04 01:23:55;;;;;;;6.38;1.42;;;9.10;99.90;;;;;;5035217;28;20033;-72
2023/01/04 01:26:23;;;;;;;7.43;1.55;;;9.10;99.90;;;;;;5035515;28;20037;-70
2023/01/04 01:28:49;;;;;;;4.13;0.98;;;9.10;99.90;;;;;;5035854;28;20032;-72
2023/01/04 01:31:17;;;;;;;6.72;1.08;;;9.10;99.90;;;;;;5036113;28;20037;-70
2023/01/04 01:33:44;;;;;;;6.30;0.85;;;9.10;99.90;;;;;;5036185;28;20037;-70
2023/01/04 01:36:12;;;;;;;4.32;1.00;;;9.20;99.90;;;;;;5034664;28;20075;-70
2023/01/04 01:38:38;;;;;;;6.80;1.00;;;9.20;99.90;;;;;;5034680;28;20022;-70
2023/01/04 01:41:06;;;;;;;4.22;1.00;;;9.20;99.90;;;;;;5035588;28;20038;-70
2023/01/04 01:44:24;;;;;;;4.50;0.85;;;9.20;99.90;;;;;;5035637;28;20036;-70
2023/01/04 01:46:52;;;;;;;4.07;0.90;;;9.20;99.90;;;;;;5033982;28;20126;-70
2023/01/04 01:49:31;;;;;;;2.80;0.80;;;9.20;99.90;;;;;;5035724;28;20026;-70
2023/01/04 01:52:02;;;;;;;4.07;1.20;;;9.20;99.90;;;;;;5035139;28;20033;-70
2023/01/04 01:54:33;;;;;;;6.05;1.40;;;9.20;99.90;;;;;;5035546;28;20117;-70
2023/01/04 01:57:02;;;;;;;4.72;1.30;;;9.20;99.90;;;;;;5035624;28;20462;-70
2023/01/04 01:59:29;;;;;;;5.63;1.13;;;9.20;99.90;;;;;;5034757;28;20099;-70
2023/01/04 02:01:54;;;;;;;3.38;0.90;;;9.20;99.90;;;;;;5033719;28;20406;-70
2023/01/04 02:04:20;;;;;;;2.00;0.85;;;9.30;99.90;;;;;;5017639;28;20038;-70
2023/01/04 02:06:49;;;;;;;2.70;0.77;;;9.30;99.90;;;;;;5034774;28;20036;-70
2023/01/04 02:09:17;;;;;;;5.30;0.77;;;9.20;99.90;;;;;;5035170;28;20112;-70
2023/01/04 02:11:42;;;;;;;4.15;0.93;;;9.30;99.90;;;;;;5035332;28;20025;-70
2023/01/04 02:14:27;;;;;;;3.00;0.93;;;9.30;99.90;;;;;;5035134;28;20040;-72
2023/01/04 02:16:55;;;;;;;4.15;0.70;;;9.30;99.90;;;;;;5036234;28;20037;-70
2023/01/04 02:19:39;;;;;;;2.85;0.80;;;9.40;99.90;;;;;;5036754;28;20029;-70
2023/01/04 02:22:17;;;;;;;4.30;0.70;;;9.40;99.90;;;;;;5036961;28;20033;-70
2023/01/04 02:25:10;;;;;;;3.40;1.30;;;9.40;99.90;;;;;;5035284;28;20415;-70
2023/01/04 02:28:00;;;;;;;2.28;0.52;;;9.40;99.90;;;;;;5033421;28;20509;-70
2023/01/04 02:30:38;;;;;;;3.30;0.82;;;9.40;99.90;;;;;;5034710;28;20022;-71
2023/01/04 02:33:27;;;;;;;4.47;1.00;;;9.50;99.90;;;;;;5034509;28;20068;-70
2023/01/04 02:35:59;;;;;;;1.33;0.50;;;9.50;99.90;;;;;;5034894;28;20030;-71
2023/01/04 02:38:45;;;;;;;2.55;0.80;;;9.50;99.90;;;;;;5034838;28;20030;-70
2023/01/04 02:41:26;;;;;;;2.90;0.70;;;9.50;99.90;;;;;;5034167;28;20037;-71
2023/01/04 02:46:56;;;;;;;3.97;0.82;;;9.60;99.90;;;;;;5034365;28;20155;-71
2023/01/04 02:52:07;;;;;;;4.28;0.73;;;9.60;99.90;;;;;;5034103;28;20088;-71
2023/01/04 02:54:33;;;;;;;4.15;0.63;;;9.60;99.90;;;;;;5034425;28;20034;-71
2023/01/04 02:57:09;;;;;;;2.97;0.70;;;9.60;99.90;;;;;;5033028;28;20389;-70
2023/01/04 02:59:59;;;;;;;2.88;0.70;;;9.60;99.90;;;;;;5034268;28;20026;-71
2023/01/04 03:06:22;;;;;;;1.05;0.60;;;9.60;99.90;;;;;;5033901;28;20544;-71
2023/01/04 03:08:26;;;;;;;2.95;0.80;;;9.60;99.90;;;;;;5030210;28;20425;-71
2023/01/04 03:11:02;;;;;;;1.13;0.60;;;9.60;99.90;;;;;;5033326;28;20147;-71
2023/01/04 03:13:30;;;;;;;2.80;0.60;;;9.60;99.90;;;;;;5032096;28;20037;-71
2023/01/04 03:16:23;;;;;;;1.92;0.60;;;9.60;99.90;;;;;;5033857;28;20025;-71
2023/01/04 03:18:55;;;;;;;1.45;0.60;;;9.60;99.90;;;;;;5034029;28;20029;-71
2023/01/04 03:21:23;;;;;;;3.60;1.27;;;9.70;99.90;;;;;;5033983;28;20033;-71
2023/01/04 03:35:22;;;;;;;1.20;0.50;;;9.80;99.90;;;;;;5034672;28;20111;-74
2023/01/04 03:50:06;;;;;;;2.63;0.63;;;9.90;99.90;;;;;;5034262;28;20393;-74
2023/01/04 03:52:33;;;;;;;1.85;0.60;;;9.90;99.90;;;;;;5033828;28;20029;-73
2023/01/04 03:55:01;;;;;;;4.38;0.85;;;9.90;99.90;;;;;;5033692;28;20490;-74
2023/01/04 03:57:27;;;;;;;1.00;0.82;;;9.90;99.90;;;;;;5000382;28;20025;-74
2023/01/04 03:59:59;;;;;;;2.15;0.75;;;9.90;99.90;;;;;;5032576;28;20041;-74
2023/01/04 04:02:28;;;;;;;3.17;0.80;;;10.00;99.90;;;;;;5033679;28;20489;-74
2023/01/04 04:10:23;;;;;;;2.30;0.90;;;10.00;99.90;;;;;;5033199;28;20075;-74
2023/01/04 04:12:48;;;;;;;4.15;1.20;;;10.10;99.90;;;;;;5032241;28;20037;-74
2023/01/04 04:15:14;;;;;;;1.60;0.90;;;10.10;99.90;;;;;;5033765;28;20084;-74
2023/01/04 04:17:40;;;;;;;1.55;0.73;;;10.20;99.90;;;;;;5032371;28;20437;-74
2023/01/04 04:20:07;;;;;;;1.95;1.00;;;10.20;99.90;;;;;;5033910;28;20037;-74
2023/01/04 04:22:32;;;;;;;2.95;1.50;;;10.20;99.90;;;;;;5015423;28;20036;-73
2023/01/04 04:24:58;;;;;;;2.33;0.95;;;10.20;99.90;;;;;;5033270;28;20108;-74
2023/01/04 04:27:24;;;;;;;2.75;1.50;;;10.30;99.90;;;;;;5031933;28;20097;-74
2023/01/04 04:29:49;;;;;;;3.35;1.50;;;10.30;99.90;;;;;;5033793;28;20044;-75
2023/01/04 04:32:15;;;;;;;2.35;1.00;;;10.30;99.90;;;;;;5032332;28;20029;-74
2023/01/04 04:34:40;;;;;;;3.03;1.13;;;10.30;99.90;;;;;;5032730;28;20025;-74
2023/01/04 04:37:06;;;;;;;1.65;1.30;;;10.40;99.90;;;;;;5033580;28;20038;-74
2023/01/04 04:39:32;;;;;;;4.97;1.58;;;10.40;99.90;;;;;;4999466;28;20060;-74
2023/01/04 04:41:57;;;;;;;3.13;1.60;;;10.40;99.90;;;;;;5015764;28;20033;-74
2023/01/04 04:44:23;;;;;;;2.60;1.38;;;10.50;99.90;;;;;;5031846;28;20033;-74
2023/01/04 04:46:49;;;;;;;2.55;1.60;;;10.50;99.90;;;;;;5033290;28;20108;-75
2023/01/04 04:49:16;;;;;;;3.13;1.48;;;10.50;99.90;;;;;;5032180;28;20036;-74
2023/01/04 04:51:43;;;;;;;2.47;1.40;;;10.50;99.90;;;;;;5033564;28;20025;-74
2023/01/04 04:54:10;;;;;;;3.17;1.60;;;10.50;99.90;;;;;;5031997;28;20025;-74
2023/01/04 04:56:36;;;;;;;3.80;1.45;;;10.60;99.90;;;;;;5032254;28;20041;-74
2023/01/04 04:59:03;;;;;;;4.47;1.85;;;10.60;99.90;;;;;;5031861;28;20432;-74
2023/01/04 05:01:29;;;;;;;5.90;1.77;;;10.60;99.90;;;;;;5033447;28;20076;-74
2023/01/04 05:03:55;;;;;;;2.17;1.20;;;10.60;99.90;;;;;;5032915;28;20026;-74
2023/01/04 05:06:21;;;;;;;4.18;1.48;;;10.60;99.90;;;;;;5031825;28;20462;-74
2023/01/04 05:08:47;;;;;;;3.50;1.60;;;10.70;99.90;;;;;;5016253;28;20034;-75
2023/01/04 05:11:13;;;;;;;2.00;1.13;;;10.70;99.90;;;;;;5031983;28;20029;-74
2023/01/04 05:13:38;;;;;;;4.15;1.40;;;10.70;99.90;;;;;;5032763;28;20030;-74
2023/01/04 05:16:06;;;;;;;3.28;1.45;;;10.70;99.90;;;;;;5033076;28;20037;-73
2023/01/04 05:18:32;;;;;;;3.88;1.90;;;10.70;99.90;;;;;;5031918;28;20029;-73
2023/01/04 05:20:58;;;;;;;3.38;1.50;;;10.70;99.90;;;;;;5032127;28;20033;-74
2023/01/04 05:23:24;;;;;;;5.57;1.83;;;10.70;99.90;;;;;;5032589;28;20069;-73
2023/01/04 05:25:56;;;;;;;3.67;1.73;;;10.70;99.90;;;;;;5033008;28;20025;-74
2023/01/04 05:28:22;;;;;;;2.35;1.40;;;10.70;99.90;;;;;;5031723;28;20049;-74
2023/01/04 05:30:55;;;;;;;2.97;1.73;;;10.70;99.90;;;;;;5015310;28;20044;-74
2023/01/04 05:33:27;;;;;;;3.15;1.55;;;10.70;99.90;;;;;;5033916;28;20024;-74
2023/01/04 05:35:55;;;;;;;1.98;1.70;;;10.70;99.90;;;;;;5036321;28;20109;-74
2023/01/04 05:38:21;;;;;;;4.32;2.13;;;10.70;99.90;;;;;;5036507;28;20049;-74
2023/01/04 05:40:47;;;;;;;4.05;2.28;;;10.70;99.90;;;;;;5035165;28;20021;-73
2023/01/04 05:43:14;;;;;;;4.50;2.20;;;10.70;99.90;;;;;;5034910;28;20385;-74
2023/01/04 05:45:45;;;;;;;2.95;1.92;;;10.70;99.90;;;;;;5035254;28;20030;-74
2023/01/04 05:48:11;;;;;;;4.82;2.15;;;10.70;99.90;;;;;;5036391;28;20036;-74
2023/01/04 05:50:37;;;;;;;2.83;2.30;;;10.70;99.90;;;;;;5018560;28;20026;-74
2023/01/04 05:53:03;;;;;;;4.03;2.22;;;10.70;99.90;;;;;;5035942;28;20036;-74
2023/01/04 05:55:29;;;;;;;3.40;2.30;;;10.70;99.90;;;;;;5036448;28;20025;-74
2023/01/04 05:57:54;;;;;;;3.53;1.98;;;10.70;99.90;;;;;;5036077;28;20033;-74
2023/01/04 06:00:20;;;;;;;3.13;2.10;;;10.70;99.90;;;;;;5018310;28;20112;-74
2023/01/04 06:02:46;;;;;;;4.93;2.58;;;10.70;99.90;;;;;;5036049;28;20108;-74
2023/01/04 06:05:12;;;;;;;4.72;2.08;;;10.70;99.90;;;;;;5018224;28;20033;-73
2023/01/04 06:07:39;;;;;;;3.05;2.08;;;10.70;99.90;;;;;;5018506;28;20037;-74
2023/01/04 06:10:06;;;;;;;5.13;2.10;;;10.70;99.90;;;;;;5035314;28;20079;-74
2023/01/04 06:12:32;;;;;;;4.25;2.53;;;10.70;99.90;;;;;;5034775;28;20466;-75
2023/01/04 06:14:58;;;;;;;5.25;2.30;;;10.80;99.90;;;;;;5035916;28;20056;-75
2023/01/04 06:17:23;;;;;;;4.03;1.92;;;10.70;99.90;;;;;;5018368;28;20037;-75
2023/01/04 06:19:49;;;;;;;3.72;1.70;;;10.80;99.90;;;;;;5035745;28;20025;-75
2023/01/04 06:22:15;;;;;;;5.07;2.10;;;10.80;99.90;;;;;;5035210;28;20036;-75
2023/01/04 06:24:41;;;;;;;4.28;2.00;;;10.80;99.90;;;;;;5017819;28;20029;-74
2023/01/04 06:27:06;;;;;;;5.03;2.15;;;10.80;99.90;;;;;;5034098;28;20140;-74
2023/01/04 06:29:32;;;;;;;2.40;1.90;;;10.80;99.90;;;;;;5035193;28;20374;-75
2023/01/04 06:31:57;;;;;;;4.68;2.00;;;10.80;99.90;;;;;;5001948;28;20529;-74
2023/01/04 06:34:23;;;;;;;3.05;1.70;;;10.80;99.90;;;;;;5034468;28;20389;-74
2023/01/04 06:36:49;;;;;;;4.60;2.33;;;10.80;99.90;;;;;;5033869;28;20041;-75
2023/01/04 06:39:14;;;;;;;2.60;1.70;;;10.80;99.90;;;;;;5017223;28;20534;-75
2023/01/04 06:41:40;;;;;;;3.25;1.80;;;10.80;99.90;;;;;;5017636;28;20470;-73
2023/01/04 06:44:06;;;;;;;2.08;1.58;;;10.90;99.90;;;;;;5033928;28;20113;-75
2023/01/04 06:46:31;;;;;;;2.40;1.40;;;10.90;99.90;;;;;;5035126;28;20112;-74
2023/01/04 06:48:57;;;;;;;3.50;1.77;;;10.90;99.90;;;;;;5017503;28;20029;-74
2023/01/04 06:51:23;;;;;;;3.92;1.70;;;11.00;99.90;;;;;;5033816;28;20076;-75
2023/01/04 06:53:50;;;;;;;3.65;1.67;;;11.00;99.90;;;;;;5033547;28;20030;-74
2023/01/04 06:56:16;;;;;;;3.30;1.90;;;11.00;99.90;;;;;;5034857;28;20030;-73
2023/01/04 06:58:41;;;;;;;4.43;1.70;;;11.00;99.90;;;;;;5034916;28;20458;-74
2023/01/04 07:01:07;;;;;;;4.18;1.90;;;11.10;99.90;;;;;;5033968;28;20034;-74
2023/01/04 07:03:33;;;;;;;3.03;1.70;;;11.10;99.90;;;;;;5035156;28;20030;-74
2023/01/04 07:05:58;;;;;;;3.58;1.90;;;11.10;99.90;;;;;;5034493;28;20049;-74
2023/01/04 07:08:24;;;;;;;2.97;1.42;;;11.10;99.90;;;;;;5035307;28;20038;-74
2023/01/04 07:10:50;;;;;;;3.05;1.80;;;11.20;99.90;;;;;;5033556;28;20037;-74
2023/01/04 07:13:16;;;;;;;7.00;1.50;;;11.20;99.90;;;;;;5034456;28;20068;-73
2023/01/04 07:15:42;;;;;;;3.97;1.88;;;11.20;99.90;;;;;;5034235;28;20029;-73
2023/01/04 07:18:09;;;;;;;3.33;1.45;;;11.20;99.90;;;;;;5033723;28;20378;-73
2023/01/04 07:20:36;;;;;;;4.00;1.27;;;11.20;99.90;;;;;;5034239;28;20442;-77
2023/01/04 07:23:01;;;;;;;2.03;1.45;;;11.30;99.90;;;;;;5033422;28;20030;-77
2023/01/04 07:25:27;;;;;;;2.13;1.40;;;11.30;99.90;;;;;;5032932;28;20043;-78
2023/01/04 07:27:53;;;;;;;3.42;1.52;;;11.30;99.90;;;;;;5032630;28;20454;-77
2023/01/04 07:30:21;;;;;;;3.60;1.50;;;11.30;99.90;;;;;;5034615;28;20060;-79
2023/01/04 07:32:48;;;;;;;2.60;1.23;;;11.30;99.90;;;;;;5034910;28;20030;-80
2023/01/04 07:35:14;;;;;;;2.60;1.35;;;11.30;99.90;;;;;;5032838;28;20094;-71
2023/01/04 07:37:41;;;;;;;2.65;1.20;;;11.40;99.90;;;;;;5032629;28;20433;-72
2023/01/04 07:40:08;;;;;;;5.30;1.48;;;11.40;99.90;;;;;;5033207;28;20071;-74
2023/01/04 07:42:33;;;;;;;6.30;1.23;;;11.30;99.90;;;;;;5034361;28;20132;-73
2023/01/04 07:44:59;;;;;;;3.08;0.70;;;11.40;99.90;;;;;;5033882;28;20144;-73
2023/01/04 07:47:27;;;;;;;3.05;0.60;;;11.30;99.90;;;;;;5032765;28;20029;-73
2023/01/04 07:49:52;;;;;;;3.30;0.85;;;11.40;99.90;;;;;;5034001;28;20080;-73
2023/01/04 07:52:23;;;;;;;4.43;1.08;;;11.40;99.90;;;;;;5033941;28;20084;-74
2023/01/04 07:54:48;;;;;;;6.65;1.10;;;11.40;99.90;;;;;;5034558;28;20521;-73
2023/01/04 07:57:14;;;;;;;2.22;0.93;;;11.40;99.90;;;;;;5015504;28;20057;-73
2023/01/04 07:59:40;;;;;;;5.07;1.15;;;11.40;99.90;;;;;;5033846;28;20087;-74
2023/01/04 08:02:08;;;;;;;3.60;1.15;;;11.40;99.90;;;;;;5032487;28;20064;-73
2023/01/04 08:04:34;;;;;;;5.15;1.40;;;11.40;99.90;;;;;;5033634;28;20394;-73
2023/01/04 08:07:00;;;;;;;7.13;1.40;;;11.40;99.90;;;;;;5032389;28;20029;-73
2023/01/04 08:09:25;;;;;;;2.92;1.10;;;11.40;99.90;;;;;;5032969;28;20034;-73
2023/01/04 08:11:51;;;;;;;5.22;1.40;;;11.40;99.90;;;;;;5016350;28;20124;-73
2023/01/04 08:14:16;;;;;;;3.42;1.15;;;11.40;99.90;;;;;;5016464;28;20036;-73
2023/01/04 08:16:42;;;;;;;3.75;1.20;;;11.40;99.90;;;;;;5015983;28;20067;-73
2023/01/04 08:19:13;;;;;;;3.83;1.42;;;11.40;99.90;;;;;;5015927;28;20026;-73
2023/01/04 08:21:39;;;;;;;5.88;1.83;;;11.40;99.90;;;;;;5033802;28;20030;-74
2023/01/04 08:24:06;;;;;;;4.28;1.40;;;11.40;99.90;;;;;;5033380;28;20029;-74
2023/01/04 08:26:32;;;;;;;4.05;1.38;;;11.40;99.90;;;;;;5033422;28;20549;-73
2023/01/04 08:28:58;;;;;;;4.63;1.67;;;11.40;99.90;;;;;;5033934;28;20025;-73
2023/01/04 08:31:27;;;;;;;3.78;1.90;;;11.40;99.90;;;;;;5016379;28;20036;-73
2023/01/04 08:33:53;;;;;;;4.82;1.85;;;11.50;99.90;;;;;;5033321;28;20025;-73
2023/01/04 08:36:23;;;;;;;8.07;2.20;;;11.50;99.90;;;;;;5032207;28;20091;-73
2023/01/04 08:38:50;;;;;;;4.88;2.08;;;11.50;99.90;;;;;;5033157;28;20390;-73
2023/01/04 08:41:17;;;;;;;4.55;1.52;;;11.50;99.90;;;;;;5033980;28;20029;-73
2023/01/04 08:43:43;;;;;;;4.97;1.33;;;11.50;99.90;;;;;;5033439;28;20027;-73
2023/01/04 08:46:09;;;;;;;4.20;1.33;;;11.50;99.90;;;;;;5031881;28;20475;-74
2023/01/04 08:48:36;;;;;;;3.60;1.42;;;11.50;99.90;;;;;;5032223;28;20068;-73
2023/01/04 08:51:05;;;;;;;4.10;1.38;;;11.60;99.90;;;;;;5032073;28;20030;-73
2023/01/04 08:53:31;;;;;;;4.75;1.48;;;11.50;99.90;;;;;;5033270;28;20022;-73
2023/01/04 08:56:00;;;;;;;3.20;1.13;;;11.50;99.90;;;;;;5033063;28;20497;-73
2023/01/04 08:58:27;;;;;;;4.63;1.30;;;11.50;99.90;;;;;;5031878;28;20029;-73
2023/01/04 09:00:53;;;;;;;4.40;1.13;;;11.60;99.90;;;;;;5033276;28;20029;-74
2023/01/04 09:03:18;;;;;;;3.83;1.10;;;11.60;99.90;;;;;;5015231;28;20436;-74
2023/01/04 09:05:45;;;;;;;2.65;1.00;;;11.60;99.90;;;;;;5031978;28;20041;-73
2023/01/04 09:08:11;;;;;;;3.60;1.17;;;11.60;99.90;;;;;;5032128;28;20047;-73
2023/01/04 09:10:39;;;;;;;3.10;1.33;;;11.60;99.90;;;;;;5036143;28;20047;-73
2023/01/04 09:13:05;;;;;;;4.07;1.00;;;11.60;99.90;;;;;;5035723;28;20036;-73
2023/01/04 09:15:32;;;;;;;5.32;1.40;;;11.60;99.90;;;;;;5019715;28;20030;-73
2023/01/04 09:17:58;;;;;;;5.03;1.27;;;11.70;99.90;;;;;;5035504;28;20034;-73
2023/01/04 09:20:23;;;;;;;4.35;1.10;;;11.60;99.90;;;;;;5035598;28;20378;-73
2023/01/04 09:22:49;;;;;;;3.38;1.15;;;11.60;99.90;;;;;;5035563;28;20116;-73
2023/01/04 09:25:15;;;;;;;3.55;1.00;;;11.70;99.90;;;;;;5002582;28;20037;-74
2023/01/04 09:27:40;;;;;;;2.83;1.10;;;11.60;99.90;;;;;;5035084;28;20068;-74
2023/01/04 09:30:07;;;;;;;4.35;1.50;;;11.70;99.90;;;;;;5035623;28;20029;-74
2023/01/04 09:32:32;;;;;;;5.70;1.77;;;11.70;99.90;;;;;;5036902;28;20108;-73
2023/01/04 09:34:58;;;;;;;3.70;1.45;;;11.70;99.90;;;;;;5035061;28;20160;-73
2023/01/04 09:37:23;;;;;;;6.32;2.17;;;11.70;99.90;;;;;;5036244;28;20030;-73
2023/01/04 09:39:49;;;;;;;5.35;1.70;;;11.70;99.90;;;;;;5019519;28;20417;-73
2023/01/04 09:42:39;;;;;;;3.65;1.90;;;11.70;99.90;;;;;;5035521;28;20347;-73
2023/01/04 09:45:19;;;;;;;7.43;1.73;;;11.70;99.90;;;;;;5035509;28;20025;-73
2023/01/04 09:48:00;;;;;;;4.55;1.60;;;11.70;99.90;;;;;;5036481;28;20053;-73
2023/01/04 09:50:49;;;;;;;3.47;1.45;;;11.70;99.90;;;;;;5036412;28;20113;-74
2023/01/04 09:53:20;;;;;;;6.00;1.67;;;11.70;99.90;;;;;;5034145;28;20053;-74
2023/01/04 09:55:49;;;;;;;5.05;1.63;;;11.70;99.90;;;;;;5035811;28;20501;-73
2023/01/04 09:58:28;;;;;;;5.32;1.58;;;11.80;99.90;;;;;;5035279;28;20048;-74
2023/01/04 10:01:05;;;;;;;4.63;1.80;;;11.80;99.90;;;;;;5035074;28;20032;-74
2023/01/04 10:03:38;;;;;;;5.90;1.67;;;11.80;99.90;;;;;;5034849;28;20109;-74
2023/01/04 10:06:08;;;;;;;5.80;1.75;;;11.70;99.90;;;;;;5034809;28;20040;-73
2023/01/04 10:08:35;;;;;;;4.43;1.80;;;11.80;99.90;;;;;;5034855;28;20072;-72
2023/01/04 10:11:35;;;;;;;6.00;1.30;;;11.70;99.90;;;;;;5034646;28;20034;-73
2023/01/04 10:14:01;;;;;;;3.72;1.30;;;11.80;99.90;;;;;;5034730;28;20519;-73
2023/01/04 10:16:45;;;;;;;4.13;1.33;;;11.80;99.90;;;;;;5035728;28;20112;-74
2023/01/04 10:19:22;;;;;;;3.95;1.80;;;11.80;99.90;;;;;;5035177;28;20025;-74
2023/01/04 10:22:21;;;;;;;2.13;1.30;;;11.80;99.90;;;;;;5035320;28;20026;-74
2023/01/04 10:24:54;;;;;;;4.63;1.42;;;11.80;99.90;;;;;;5035767;28;20060;-74
2023/01/04 10:27:42;;;;;;;3.28;1.08;;;11.80;99.90;;;;;;5035114;28;20061;-74
2023/01/04 10:30:43;;;;;;;6.07;1.33;;;11.80;99.90;;;;;;5035066;28;20060;-72
2023/01/04 10:33:10;;;;;;;4.45;1.70;;;11.80;99.90;;;;;;5035497;28;20034;-73
2023/01/04 10:35:38;;;;;;;3.55;1.25;;;11.80;99.90;;;;;;5035345;28;20045;-73
2023/01/04 10:38:14;;;;;;;2.15;1.00;;;11.80;99.90;;;;;;5017294;28;20041;-74
2023/01/04 10:40:40;;;;;;;4.82;1.35;;;11.80;99.90;;;;;;5035407;28;20034;-75
2023/01/04 10:43:41;;;;;;;4.28;1.52;;;11.80;99.90;;;;;;5033956;28;20028;-74
2023/01/04 10:46:10;;;;;;;4.38;1.40;;;11.80;99.90;;;;;;5035104;28;20083;-73
2023/01/04 10:48:41;;;;;;;2.58;1.30;;;11.80;99.90;;;;;;5035741;28;20112;-73
2023/01/04 10:51:07;;;;;;;5.70;2.08;;;11.80;99.90;;;;;;5034894;28;20034;-73
2023/01/04 10:53:48;;;;;;;4.25;1.52;;;11.80;99.90;;;;;;5033390;28;20032;-73
2023/01/04 10:56:21;;;;;;;2.65;1.45;;;11.90;99.90;;;;;;5033653;28;20140;-72
2023/01/04 10:58:47;;;;;;;;;;;11.90;99.90;;;;;;5033675;28;20026;-74
2023/01/04 11:01:22;;;;;;;5.40;1.95;;;11.90;99.90;;;;;;5034560;28;20311;-74
2023/01/04 11:03:53;;;;;;;2.75;2.13;;;11.90;99.90;;;;;;5033793;28;20026;-72
2023/01/04 11:06:25;;;;;;;2.85;2.15;;;11.90;99.90;;;;;;5034473;28;20220;-73
2023/01/04 11:09:01;;;;;;;2.20;2.00;;;11.90;99.90;;;;;;5034511;28;20082;-73
2023/01/04 11:11:31;;;;;;;3.70;2.00;;;11.90;99.90;;;;;;5034348;28;20029;-73
2023/01/04 11:13:59;;;;;;;2.88;1.95;;;11.90;99.90;;;;;;5034365;28;20025;-75
2023/01/04 11:16:25;;;;;;;3.00;2.20;;;11.90;99.90;;;;;;5016263;28;20049;-73
2023/01/04 11:18:51;;;;;;;5.43;2.92;;;11.90;99.90;;;;;;5032659;28;20159;-74
2023/01/04 11:21:21;;;;;;;2.95;1.70;;;11.90;99.90;;;;;;5016285;28;20386;-75
2023/01/04 11:23:47;;;;;;;4.80;2.00;;;11.90;99.90;;;;;;5032892;28;20033;-74
2023/01/04 11:26:21;;;;;;;2.05;1.58;;;11.90;99.90;;;;;;5033865;28;20029;-74
2023/01/04 11:28:57;;;;;;;2.78;1.70;;;12.00;99.90;;;;;;5032995;28;20045;-74
2023/01/04 11:31:32;;;;;;;3.10;1.90;;;12.00;99.90;;;;;;5032407;28;20063;-74
2023/01/04 11:34:00;;;;;;;1.98;1.60;;;11.90;99.90;;;;;;5033176;28;20032;-75
2023/01/04 11:36:32;;;;;;;2.10;1.55;;;12.00;99.90;;;;;;5032922;28;20065;-74
2023/01/04 11:38:58;;;;;;;2.45;1.70;;;12.00;99.90;;;;;;5032868;28;20048;-74
2023/01/04 11:41:25;;;;;;;3.00;1.33;;;11.90;99.90;;;;;;5034786;28;20045;-75
2023/01/04 11:44:05;;;;;;;2.22;1.85;;;11.90;99.90;;;;;;5032507;28;20038;-74
2023/01/04 11:46:33;;;;;;;4.03;1.20;;;12.00;99.90;;;;;;5033881;28;20478;-73
2023/01/04 11:49:00;;;;;;;2.45;1.40;;;12.00;99.90;;;;;;5034105;28;20022;-75
2023/01/04 11:51:25;;;;;;;2.47;1.60;;;12.00;99.90;;;;;;5033806;28;20528;-74
2023/01/04 11:53:58;;;;;;;2.15;1.73;;;12.00;99.90;;;;;;5033719;28;20057;-76
2023/01/04 11:56:25;;;;;;;2.28;1.35;;;12.00;99.90;;;;;;5033403;28;20036;-74
2023/01/04 11:59:12;;;;;;;2.20;1.20;;;12.00;99.90;;;;;;5033708;28;20029;-75
2023/01/04 12:01:41;;;;;;;2.45;1.27;;;12.00;99.90;;;;;;5032927;28;20116;-76
2023/01/04 12:04:25;;;;;;;2.53;0.90;;;12.10;99.90;;;;;;5035099;28;20408;-77
2023/01/04 12:07:04;;;;;;;6.28;1.15;;;12.10;99.90;;;;;;5032450;28;20056;-76
2023/01/04 12:09:30;;;;;;;2.28;1.20;;;12.00;99.90;;;;;;5032324;28;20112;-77
2023/01/04 12:11:58;;;;;;;1.35;0.95;;;12.00;99.90;;;;;;5032271;28;20117;-77
2023/01/04 12:14:34;;;;;;;1.52;0.93;;;12.10;99.90;;;;;;5034365;28;20033;-77
2023/01/04 12:17:35;;;;;;;1.30;0.82;;;12.00;99.90;;;;;;5032903;28;20481;-75
2023/01/04 12:20:02;;;;;;;1.40;0.93;;;12.10;99.90;;;;;;5032488;28;20080;-70
2023/01/04 12:22:28;;;;;;;1.90;0.93;;;12.10;99.90;;;;;;5032392;28;20033;-72
2023/01/04 12:24:54;;;;;;;3.92;0.90;;;12.20;99.90;;;;;;5033636;28;20029;-72
2023/01/04 12:27:20;;;;;;;4.65;1.30;;;12.20;99.90;;;;;;5015476;28;20152;-72
2023/01/04 12:29:54;;;;;;;3.28;1.25;;;12.20;99.90;;;;;;5032691;28;20055;-73
2023/01/04 12:32:26;;;;;;;2.13;1.23;;;12.20;99.90;;;;;;5031873;28;20416;-72
2023/01/04 12:34:52;;;;;;;2.65;1.30;;;12.20;99.90;;;;;;5031875;28;20025;-70
2023/01/04 12:37:36;;;;;;;1.58;1.45;;;12.30;99.90;;;;;;5032805;28;20045;-69
2023/01/04 12:40:22;;;;;;;3.17;1.27;;;12.30;99.90;;;;;;5033223;28;20033;-71
2023/01/04 12:43:25;;;;;;;2.30;1.50;;;12.40;99.90;;;;;;5033409;28;20095;-70
2023/01/04 12:49:38;;;;;;;4.75;1.88;;;12.40;99.90;;;;;;5037034;28;20504;-71
2023/01/04 12:52:07;;;;;;;3.45;1.52;;;12.50;99.90;;;;;;5036616;28;20041;-71
2023/01/04 12:54:56;;;;;;;2.10;1.40;;;12.50;99.90;;;;;;5037335;28;20030;-71
2023/01/04 12:57:33;;;;;;;3.97;1.63;;;12.50;99.90;;;;;;5035830;28;20481;-72
2023/01/04 13:00:06;;;;;;;3.78;1.27;;;12.50;99.90;;;;;;5037048;28;20017;-71
2023/01/04 13:02:33;;;;;;;4.13;1.08;;;12.50;99.90;;;;;;5037046;28;20026;-72
2023/01/04 13:05:19;;;;;;;3.50;1.25;;;12.60;99.90;;;;;;5037026;28;20076;-72
2023/01/04 13:07:48;;;;;;;3.42;1.27;;;12.60;99.90;;;;;;5034847;28;20509;-72
2023/01/04 13:10:28;;;;;;;6.93;1.17;;;12.60;99.90;;;;;;5036984;28;20025;-72
2023/01/04 13:13:00;;;;;;;3.60;1.25;;;12.70;99.90;;;;;;5036529;28;20068;-71
2023/01/04 13:15:43;;;;;;;5.47;1.15;;;12.70;99.90;;;;;;5035453;28;20384;-72
2023/01/04 13:18:29;;;;;;;5.47;1.27;;;12.70;99.90;;;;;;5035899;28;20092;-72
2023/01/04 13:20:55;;;;;;;3.03;0.95;;;12.80;99.90;;;;;;5036325;28;20053;-72
2023/01/04 13:23:25;;;;;;;5.03;1.50;;;12.70;99.90;;;;;;5036307;28;20097;-72
2023/01/04 13:25:50;;;;;;;5.85;1.02;;;12.80;99.90;;;;;;5036421;28;20512;-72
2023/01/04 13:28:17;;;;;;;7.00;1.15;;;12.80;99.90;;;;;;5034356;28;20053;-72
2023/01/04 13:30:44;;;;;;;5.13;1.20;;;12.80;99.90;;;;;;5034869;28;20068;-73
2023/01/04 13:33:16;;;;;;;2.65;0.80;;;12.80;99.90;;;;;;5034530;28;20034;-72
2023/01/04 13:35:42;;;;;;;7.53;1.00;;;12.80;99.90;;;;;;5035979;28;20053;-72
2023/01/04 13:38:15;;;;;;;3.72;1.20;;;12.90;99.90;;;;;;5034542;28;20072;-72
2023/01/04 13:40:44;;;;;;;2.13;0.82;;;12.90;99.90;;;;;;5017767;28;20060;-73
2023/01/04 13:43:29;;;;;;;5.40;1.10;;;12.90;99.90;;;;;;5035740;28;20092;-73
2023/01/04 13:46:08;;;;;;;3.28;0.88;;;13.00;99.90;;;;;;5034923;28;20037;-72